KEVB/EVB METAR and TAF weather

Enter ICAO airport designator
Station Type Date Time Source
KEVB METAR 2024/02/26 17:47 UTC NOAA

KEVB 261747Z 08007KT 10SM CLR 21/11 A3021


Station Type Date Time Source
KEVB Decoded METAR 2024/02/26 17:47 UTC NOAA

New Smyrna Beach, New Smyrna Beach Municipal Airport, FL, United States (KEVB) 29-03-20N 080-56-54W
Feb 26, 2024 - 12:47 PM EST / 2024.02.26 1747 UTC
Wind: from the E (080 degrees) at 8 MPH (7 KT):0
Visibility: 10 mile(s):0
Sky conditions: clear
Temperature: 69 F (21 C)
Dew Point: 51 F (11 C)
Relative Humidity: 52%
Pressure (altimeter): 30.21 in. Hg (1023 hPa)
ob: KEVB 261747Z 08007KT 10SM CLR 21/11 A3021
cycle: 18

Station Type Date Time Source
KEVB TAF UTC NOAA

Error!

Example: see airport list